createdAt,value
2022-09-07T00:00:43.708Z,15.35
2022-09-07T00:01:14.231Z,15.35
2022-09-07T00:01:45.480Z,15.35
2022-09-07T00:02:16.106Z,15.35
2022-09-07T00:02:47.142Z,15.35
2022-09-07T00:03:18.624Z,15.35
2022-09-07T00:03:49.309Z,15.35
2022-09-07T00:04:21.279Z,15.35
2022-09-07T00:04:52.498Z,15.35
2022-09-07T00:05:26.488Z,15.35
2022-09-07T00:05:53.399Z,15.35
2022-09-07T00:06:24.721Z,15.35
2022-09-07T00:06:55.238Z,15.35
2022-09-07T00:07:26.120Z,15.35
2022-09-07T00:08:01.304Z,15.35
2022-09-07T00:08:52.995Z,15.35
2022-09-07T00:08:59.916Z,15.35
2022-09-07T00:09:31.038Z,15.35
2022-09-07T00:10:04.060Z,15.35
2022-09-07T00:10:40.654Z,15.35
2022-09-07T00:11:03.550Z,15.35
2022-09-07T00:11:34.226Z,15.35
2022-09-07T00:12:11.819Z,15.35
2022-09-07T00:12:36.368Z,15.35
2022-09-07T00:13:07.276Z,15.35
2022-09-07T00:13:42.291Z,15.35
2022-09-07T00:14:09.311Z,15.35
2022-09-07T00:14:41.756Z,15.35
2022-09-07T00:15:12.939Z,15.35
2022-09-07T00:15:44.335Z,15.35
2022-09-07T00:16:13.262Z,15.35
2022-09-07T00:16:44.177Z,15.35
2022-09-07T00:17:19.946Z,15.35
2022-09-07T00:17:46.210Z,15.35
2022-09-07T00:18:20.402Z,15.25
2022-09-07T00:18:49.639Z,15.25
2022-09-07T00:19:20.353Z,15.25
2022-09-07T00:19:53.228Z,15.25
2022-09-07T00:20:25.068Z,15.35
2022-09-07T00:20:53.546Z,15.35
2022-09-07T00:21:23.913Z,15.35
2022-09-07T00:21:54.522Z,15.35
2022-09-07T00:22:26.562Z,15.35
2022-09-07T00:23:01.411Z,15.35
2022-09-07T00:23:28.541Z,15.35
2022-09-07T00:23:59.347Z,15.35
2022-09-07T00:24:32.379Z,15.35
2022-09-07T00:25:03.446Z,15.35
2022-09-07T00:25:40.027Z,15.35
2022-09-07T00:26:09.169Z,15.35
2022-09-07T00:26:34.017Z,15.35
2022-09-07T00:27:07.164Z,15.35
2022-09-07T00:27:44.467Z,15.35
2022-09-07T00:28:10.248Z,15.35
2022-09-07T00:28:43.340Z,15.35
2022-09-07T00:29:13.074Z,15.35
2022-09-07T00:29:41.752Z,15.35
2022-09-07T00:30:11.489Z,15.25
2022-09-07T00:30:46.991Z,15.25
2022-09-07T00:31:25.482Z,15.25
2022-09-07T00:31:44.803Z,15.25
2022-09-07T00:32:25.632Z,15.25
2022-09-07T00:32:47.653Z,15.25
2022-09-07T00:33:34.152Z,15.25
2022-09-07T00:33:47.422Z,15.25
2022-09-07T00:34:23.387Z,15.25
2022-09-07T00:34:49.526Z,15.15
2022-09-07T00:35:26.489Z,15.15
2022-09-07T00:35:52.794Z,15.15
2022-09-07T00:36:24.714Z,15.15
2022-09-07T00:36:54.762Z,15.15
2022-09-07T00:37:38.551Z,15.15
2022-09-07T00:37:55.348Z,15.15
2022-09-07T00:38:29.253Z,15.15
2022-09-07T00:38:57.282Z,15.15
2022-09-07T00:39:28.304Z,15.15
2022-09-07T00:39:59.103Z,15.15
2022-09-07T00:40:31.020Z,15.15
2022-09-07T00:41:01.806Z,15.15
2022-09-07T00:41:32.984Z,15.15
2022-09-07T00:42:20.419Z,15.15
2022-09-07T00:42:34.123Z,15.15
2022-09-07T00:43:05.209Z,15.15
2022-09-07T00:43:36.788Z,15.15
2022-09-07T00:44:07.013Z,15.15
2022-09-07T00:44:38.435Z,15.25
2022-09-07T00:45:11.767Z,15.25
2022-09-07T00:45:41.879Z,15.25
2022-09-07T00:46:12.346Z,15.25
2022-09-07T00:46:43.401Z,15.25
2022-09-07T00:47:13.600Z,15.25
2022-09-07T00:47:44.251Z,15.25
2022-09-07T00:48:15.344Z,15.25
2022-09-07T00:48:46.875Z,15.25
2022-09-07T00:49:17.433Z,15.25
2022-09-07T00:49:48.387Z,15.25
2022-09-07T00:50:23.084Z,15.15
2022-09-07T00:50:50.091Z,15.15
2022-09-07T00:51:21.771Z,15.15
2022-09-07T00:51:54.789Z,15.15
2022-09-07T00:52:23.571Z,15.15
2022-09-07T00:52:54.633Z,15.15
2022-09-07T00:53:25.212Z,15.15
2022-09-07T00:53:56.229Z,15.15
2022-09-07T00:54:27.252Z,15.15
2022-09-07T00:54:58.571Z,15.15
2022-09-07T00:55:29.298Z,15.15
2022-09-07T00:56:00.344Z,15.15
2022-09-07T00:56:34.314Z,15.15
2022-09-07T00:57:02.922Z,15.15
2022-09-07T00:57:33.755Z,15.15
2022-09-07T00:58:04.236Z,15.15
2022-09-07T00:58:35.302Z,15.15
2022-09-07T00:59:07.221Z,15.15
2022-09-07T00:59:37.379Z,15.25
2022-09-07T01:00:13.971Z,15.35
2022-09-07T01:00:40.886Z,15.35
2022-09-07T01:01:10.252Z,15.35
2022-09-07T01:01:41.542Z,15.35
2022-09-07T01:02:15.351Z,15.35
2022-09-07T01:02:46.603Z,15.25
2022-09-07T01:03:14.694Z,15.25
2022-09-07T01:03:45.414Z,15.25
2022-09-07T01:04:16.468Z,15.25
2022-09-07T01:04:47.223Z,15.25
2022-09-07T01:05:20.853Z,15.35
2022-09-07T01:05:49.476Z,15.35
2022-09-07T01:06:37.739Z,15.35
2022-09-07T01:06:51.507Z,15.35
2022-09-07T01:07:22.756Z,15.35
2022-09-07T01:07:54.521Z,15.35
2022-09-07T01:08:27.370Z,15.35
2022-09-07T01:08:55.539Z,15.35
2022-09-07T01:09:26.188Z,15.35
2022-09-07T01:09:57.489Z,15.35
2022-09-07T01:10:28.672Z,15.35
2022-09-07T01:10:59.971Z,15.35
2022-09-07T01:11:30.415Z,15.35
2022-09-07T01:12:05.059Z,15.35
2022-09-07T01:12:33.180Z,15.35
2022-09-07T01:13:04.120Z,15.35
2022-09-07T01:13:34.851Z,15.35
2022-09-07T01:14:05.381Z,15.35
2022-09-07T01:14:39.133Z,15.35
2022-09-07T01:15:08.367Z,15.35
2022-09-07T01:15:38.519Z,15.25
2022-09-07T01:16:12.735Z,15.25
2022-09-07T01:16:40.118Z,15.25
2022-09-07T01:17:11.533Z,15.25
2022-09-07T01:17:42.337Z,15.25
2022-09-07T01:18:14.379Z,15.25
2022-09-07T01:18:45.327Z,15.25
2022-09-07T01:19:15.261Z,15.25
2022-09-07T01:19:46.610Z,15.15
2022-09-07T01:20:17.903Z,15.15
2022-09-07T01:20:48.905Z,15.15
2022-09-07T01:21:19.319Z,15.15
2022-09-07T01:22:07.449Z,15.15
2022-09-07T01:22:52.392Z,15.15
2022-09-07T01:23:40.457Z,15.15
2022-09-07T01:23:56.750Z,15.15
2022-09-07T01:24:31.245Z,15.15
2022-09-07T01:24:59.132Z,15.15
2022-09-07T01:25:27.863Z,15.15
2022-09-07T01:25:58.510Z,15.15
2022-09-07T01:27:00.523Z,15.15
2022-09-07T01:27:31.252Z,15.15
2022-09-07T01:28:02.649Z,15.15
2022-09-07T01:28:50.521Z,15.15
2022-09-07T01:29:04.957Z,15.15
2022-09-07T01:29:35.585Z,15.15
2022-09-07T01:30:07.294Z,15.15
2022-09-07T01:30:38.165Z,15.15
2022-09-07T01:31:08.671Z,15.15
2022-09-07T01:31:45.683Z,15.15
2022-09-07T01:32:10.555Z,15.15
2022-09-07T01:32:41.579Z,15.15
2022-09-07T01:33:12.465Z,15.15
2022-09-07T01:33:44.301Z,15.15
2022-09-07T01:34:15.346Z,15.15
2022-09-07T01:34:46.281Z,15.15
2022-09-07T01:35:19.513Z,15.15
2022-09-07T01:35:47.558Z,15.15
2022-09-07T01:36:18.580Z,15.15
2022-09-07T01:37:20.289Z,15.15
2022-09-07T01:37:57.067Z,15.15
2022-09-07T01:38:22.573Z,15.15
2022-09-07T01:38:54.794Z,15.15
2022-09-07T01:39:25.573Z,15.15
2022-09-07T01:39:55.739Z,15.15
2022-09-07T01:40:26.484Z,15.15
2022-09-07T01:40:57.479Z,15.15
2022-09-07T01:41:45.985Z,15.15
2022-09-07T01:41:59.575Z,15.15
2022-09-07T01:42:30.507Z,15.15
2022-09-07T01:43:01.282Z,15.15
2022-09-07T01:43:32.524Z,15.15
2022-09-07T01:44:05.923Z,15.15
2022-09-07T01:44:37.265Z,15.25
2022-09-07T01:45:11.619Z,15.25
2022-09-07T01:45:39.324Z,15.25
2022-09-07T01:46:07.619Z,15.25
2022-09-07T01:46:38.784Z,15.25
2022-09-07T01:47:09.424Z,15.25
2022-09-07T01:47:40.596Z,15.25
2022-09-07T01:48:11.457Z,15.25
2022-09-07T01:48:42.699Z,15.25
2022-09-07T01:49:14.301Z,15.25
2022-09-07T01:49:45.306Z,15.25
2022-09-07T01:50:19.413Z,15.25
2022-09-07T01:50:46.831Z,15.25
2022-09-07T01:51:17.858Z,15.25
2022-09-07T01:51:48.541Z,15.25
2022-09-07T01:52:19.305Z,15.25
2022-09-07T01:52:50.880Z,15.15
2022-09-07T01:53:21.733Z,15.15
2022-09-07T01:53:52.519Z,15.15
2022-09-07T01:54:26.827Z,15.15
2022-09-07T01:55:13.634Z,15.15
2022-09-07T01:55:25.738Z,15.15
2022-09-07T01:55:56.383Z,15.15
2022-09-07T01:56:27.360Z,15.15
2022-09-07T01:56:59.837Z,15.15
2022-09-07T01:58:00.461Z,15.15
2022-09-07T01:58:31.637Z,15.15
2022-09-07T01:59:02.472Z,15.15
2022-09-07T01:59:33.796Z,15.15
2022-09-07T02:00:19.129Z,15.15
2022-09-07T02:00:39.219Z,15.15
2022-09-07T02:01:07.378Z,15.15
2022-09-07T02:01:39.741Z,15.15
2022-09-07T02:02:12.535Z,15.25
2022-09-07T02:02:39.463Z,15.25
2022-09-07T02:03:12.131Z,15.25
2022-09-07T02:03:41.568Z,15.25
2022-09-07T02:04:12.506Z,15.25
2022-09-07T02:04:43.904Z,15.25
2022-09-07T02:05:46.048Z,15.25
2022-09-07T02:06:19.769Z,15.25
2022-09-07T02:06:47.372Z,15.25
2022-09-07T02:07:18.694Z,15.15
2022-09-07T02:08:06.965Z,15.15
2022-09-07T02:08:20.450Z,15.15
2022-09-07T02:08:51.360Z,15.15
2022-09-07T02:09:26.073Z,15.15
2022-09-07T02:09:53.511Z,15.15
2022-09-07T02:10:25.719Z,15.15
2022-09-07T02:10:56.137Z,15.15
2022-09-07T02:11:26.607Z,15.15
2022-09-07T02:11:57.847Z,15.15
2022-09-07T02:12:28.554Z,15.15
2022-09-07T02:12:59.581Z,15.15
2022-09-07T02:13:30.629Z,15.15
2022-09-07T02:14:05.762Z,15.15
2022-09-07T02:14:32.592Z,15.15
2022-09-07T02:15:15.758Z,15.15
2022-09-07T02:15:35.433Z,15.15
2022-09-07T02:16:06.446Z,15.15
2022-09-07T02:16:36.444Z,15.15
2022-09-07T02:17:25.582Z,15.15
2022-09-07T02:17:38.596Z,15.25
2022-09-07T02:18:09.725Z,15.25
2022-09-07T02:18:40.393Z,15.25
2022-09-07T02:19:11.558Z,15.25
2022-09-07T02:19:42.364Z,15.25
2022-09-07T02:20:17.245Z,15.25
2022-09-07T02:20:46.354Z,15.25
2022-09-07T02:21:15.892Z,15.25
2022-09-07T02:21:46.808Z,15.15
2022-09-07T02:22:17.497Z,15.15
2022-09-07T02:22:48.543Z,15.15
2022-09-07T02:23:19.451Z,15.15
2022-09-07T02:23:50.650Z,15.15
2022-09-07T02:24:21.655Z,15.15
2022-09-07T02:24:52.574Z,15.15
2022-09-07T02:25:23.530Z,15.15
2022-09-07T02:26:12.078Z,15.15
2022-09-07T02:26:26.543Z,15.15
2022-09-07T02:26:56.755Z,15.05
2022-09-07T02:27:30.669Z,15.05
2022-09-07T02:27:59.082Z,15.05
2022-09-07T02:28:30.133Z,15.05
2022-09-07T02:29:00.711Z,15.05
2022-09-07T02:29:31.398Z,15.05
2022-09-07T02:30:03.910Z,14.95
2022-09-07T02:30:33.576Z,14.95
2022-09-07T02:31:05.765Z,14.95
2022-09-07T02:31:36.239Z,14.95
2022-09-07T02:32:07.028Z,14.95
2022-09-07T02:32:38.195Z,14.95
2022-09-07T02:33:08.973Z,14.95
2022-09-07T02:33:43.110Z,14.85
2022-09-07T02:34:11.286Z,14.85
2022-09-07T02:34:42.420Z,14.85
2022-09-07T02:35:17.280Z,14.85
2022-09-07T02:35:43.734Z,14.85
2022-09-07T02:36:16.073Z,14.85
2022-09-07T02:36:46.653Z,14.85
2022-09-07T02:37:47.813Z,14.75
2022-09-07T02:38:18.840Z,14.75
2022-09-07T02:38:49.563Z,14.75
2022-09-07T02:39:55.863Z,14.75
2022-09-07T02:39:59.799Z,14.75
2022-09-07T02:40:29.784Z,14.75
2022-09-07T02:40:58.659Z,14.75
2022-09-07T02:41:29.967Z,14.75
2022-09-07T02:42:00.833Z,14.75
2022-09-07T02:42:31.652Z,14.75
2022-09-07T02:43:07.183Z,14.75
2022-09-07T02:43:47.523Z,14.75
2022-09-07T02:44:20.866Z,14.75
2022-09-07T02:44:49.540Z,14.75
2022-09-07T02:45:21.258Z,14.75
2022-09-07T02:46:08.533Z,14.75
2022-09-07T02:46:22.765Z,14.75
2022-09-07T02:46:53.516Z,14.75
2022-09-07T02:47:25.383Z,14.75
2022-09-07T02:47:58.513Z,14.65
2022-09-07T02:48:27.149Z,14.65
2022-09-07T02:48:57.851Z,14.65
2022-09-07T02:49:28.861Z,14.65
2022-09-07T02:49:59.720Z,14.65
2022-09-07T02:50:31.747Z,14.65
2022-09-07T02:51:01.686Z,14.65
2022-09-07T02:51:32.891Z,14.65
2022-09-07T02:52:03.949Z,14.65
2022-09-07T02:52:35.895Z,14.65
2022-09-07T02:53:22.781Z,14.65
2022-09-07T02:53:37.481Z,14.65
2022-09-07T02:54:10.501Z,14.65
2022-09-07T02:54:38.952Z,14.65
2022-09-07T02:55:10.582Z,14.65
2022-09-07T02:55:40.623Z,14.65
2022-09-07T02:56:12.163Z,14.65
2022-09-07T02:56:43.057Z,14.65
2022-09-07T02:57:13.930Z,14.65
2022-09-07T02:57:44.625Z,14.65
2022-09-07T02:58:16.333Z,14.65
2022-09-07T02:59:04.201Z,14.65
2022-09-07T02:59:18.286Z,14.65
2022-09-07T02:59:48.893Z,14.65
2022-09-07T03:00:26.367Z,14.65
2022-09-07T03:00:50.760Z,14.65
2022-09-07T03:01:21.722Z,14.65
2022-09-07T03:01:52.856Z,14.65
2022-09-07T03:02:24.062Z,14.65
2022-09-07T03:02:54.968Z,14.65
2022-09-07T03:03:26.965Z,14.65
2022-09-07T03:03:57.528Z,14.65
2022-09-07T03:04:30.733Z,14.65
2022-09-07T03:04:59.209Z,14.65
2022-09-07T03:05:30.018Z,14.65
2022-09-07T03:06:10.798Z,14.65
2022-09-07T03:06:31.920Z,14.65
2022-09-07T03:07:06.545Z,14.65
2022-09-07T03:07:51.242Z,14.65
2022-09-07T03:08:04.954Z,14.65
2022-09-07T03:08:36.634Z,14.65
2022-09-07T03:09:08.394Z,14.65
2022-09-07T03:09:38.616Z,14.65
2022-09-07T03:10:11.169Z,14.65
2022-09-07T03:10:39.911Z,14.65
2022-09-07T03:11:10.996Z,14.65
2022-09-07T03:11:41.844Z,14.65
2022-09-07T03:12:12.680Z,14.65
2022-09-07T03:12:46.252Z,14.65
2022-09-07T03:13:28.762Z,14.65
2022-09-07T03:13:48.156Z,14.65
2022-09-07T03:14:18.122Z,14.65
2022-09-07T03:14:48.578Z,14.65
2022-09-07T03:15:21.218Z,14.65
2022-09-07T03:15:55.006Z,14.65
2022-09-07T03:16:20.763Z,14.65
2022-09-07T03:16:51.703Z,14.65
2022-09-07T03:17:22.886Z,14.65
2022-09-07T03:17:53.837Z,14.65
2022-09-07T03:18:25.075Z,14.65
2022-09-07T03:18:55.870Z,14.65
2022-09-07T03:19:27.139Z,14.65
2022-09-07T03:19:59.382Z,14.65
2022-09-07T03:20:29.466Z,14.65
2022-09-07T03:21:02.921Z,14.65
2022-09-07T03:21:31.030Z,14.65
2022-09-07T03:22:01.941Z,14.65
2022-09-07T03:22:32.934Z,14.65
2022-09-07T03:23:34.795Z,14.65
2022-09-07T03:24:37.697Z,14.65
2022-09-07T03:25:08.561Z,14.65
2022-09-07T03:25:39.436Z,14.65
2022-09-07T03:26:10.711Z,14.65
2022-09-07T03:26:40.970Z,14.65
2022-09-07T03:27:11.927Z,14.65
2022-09-07T03:27:42.703Z,14.65
2022-09-07T03:28:16.119Z,14.65
2022-09-07T03:28:45.002Z,14.65
2022-09-07T03:29:15.946Z,14.65
2022-09-07T03:29:52.842Z,14.65
2022-09-07T03:30:19.837Z,14.65
2022-09-07T03:30:59.095Z,14.65
2022-09-07T03:31:20.136Z,14.65
2022-09-07T03:31:50.744Z,14.65
2022-09-07T03:32:22.197Z,14.65
2022-09-07T03:32:52.676Z,14.65
2022-09-07T03:33:24.294Z,14.65
2022-09-07T03:33:55.052Z,14.65
2022-09-07T03:34:25.982Z,14.65
2022-09-07T03:35:00.621Z,14.65
2022-09-07T03:35:29.149Z,14.65
2022-09-07T03:35:59.973Z,14.65
2022-09-07T03:36:30.382Z,14.65
2022-09-07T03:37:33.537Z,14.65
2022-09-07T03:38:02.747Z,14.65
2022-09-07T03:38:35.240Z,14.55
2022-09-07T03:39:08.171Z,14.55
2022-09-07T03:39:36.169Z,14.55
2022-09-07T03:40:07.264Z,14.55
2022-09-07T03:40:38.702Z,14.55
2022-09-07T03:41:09.784Z,14.55
2022-09-07T03:41:40.174Z,14.55
2022-09-07T03:42:10.966Z,14.55
2022-09-07T03:42:42.109Z,14.55
2022-09-07T03:43:43.918Z,14.55
2022-09-07T03:44:14.749Z,14.55
2022-09-07T03:44:46.445Z,14.55
2022-09-07T03:45:17.512Z,14.55
2022-09-07T03:45:48.996Z,14.55
2022-09-07T03:46:20.079Z,14.55
2022-09-07T03:46:50.492Z,14.55
2022-09-07T03:47:21.030Z,14.55
2022-09-07T03:47:51.974Z,14.45
2022-09-07T03:48:22.946Z,14.45
2022-09-07T03:48:53.866Z,14.45
2022-09-07T03:49:25.181Z,14.45
2022-09-07T03:49:55.751Z,14.45
2022-09-07T03:50:58.011Z,14.45
2022-09-07T03:51:30.206Z,14.45
2022-09-07T03:52:05.205Z,14.45
2022-09-07T03:52:31.057Z,14.45
2022-09-07T03:53:02.042Z,14.45
2022-09-07T03:53:32.741Z,14.45
2022-09-07T03:54:03.953Z,14.45
2022-09-07T03:55:10.275Z,14.45
2022-09-07T03:55:37.005Z,14.45
2022-09-07T03:56:08.257Z,14.45
2022-09-07T03:56:40.197Z,14.45
2022-09-07T03:57:11.015Z,14.45
2022-09-07T03:57:41.207Z,14.55
2022-09-07T03:58:12.348Z,14.55
2022-09-07T03:58:42.825Z,14.55
2022-09-07T03:59:13.700Z,14.55
2022-09-07T03:59:48.468Z,14.55
2022-09-07T04:00:19.737Z,14.55
2022-09-07T04:00:47.691Z,14.55
2022-09-07T04:01:18.146Z,14.55
2022-09-07T04:01:49.001Z,14.55
2022-09-07T04:02:19.881Z,14.55
2022-09-07T04:03:22.029Z,14.55
2022-09-07T04:03:52.944Z,14.45
2022-09-07T04:04:27.176Z,14.45
2022-09-07T04:04:54.907Z,14.45
2022-09-07T04:05:26.237Z,14.45
2022-09-07T04:06:03.922Z,14.45
2022-09-07T04:06:28.637Z,14.45
2022-09-07T04:06:59.487Z,14.45
2022-09-07T04:07:30.407Z,14.45
2022-09-07T04:08:01.330Z,14.45
2022-09-07T04:08:49.584Z,14.45
2022-09-07T04:09:07.827Z,14.45
2022-09-07T04:09:34.149Z,14.45
2022-09-07T04:10:07.685Z,14.45
2022-09-07T04:10:37.734Z,14.45
2022-09-07T04:11:07.671Z,14.45
2022-09-07T04:11:41.064Z,14.45
2022-09-07T04:12:09.419Z,14.45
2022-09-07T04:12:40.030Z,14.45
2022-09-07T04:13:10.929Z,14.45
2022-09-07T04:13:42.059Z,14.45
2022-09-07T04:14:13.031Z,14.55
2022-09-07T04:14:44.358Z,14.55
2022-09-07T04:15:15.476Z,14.55
2022-09-07T04:16:03.662Z,14.55
2022-09-07T04:16:17.745Z,14.55
2022-09-07T04:16:48.474Z,14.55
2022-09-07T04:17:19.209Z,14.55
2022-09-07T04:17:49.858Z,14.55
2022-09-07T04:18:21.265Z,14.55
2022-09-07T04:18:51.873Z,14.55
2022-09-07T04:19:23.096Z,14.65
2022-09-07T04:19:54.067Z,14.65
2022-09-07T04:20:26.587Z,14.65
2022-09-07T04:20:56.471Z,14.65
2022-09-07T04:21:27.716Z,14.55
2022-09-07T04:22:29.159Z,14.55
2022-09-07T04:23:09.271Z,14.55
2022-09-07T04:23:34.162Z,14.55
2022-09-07T04:24:02.156Z,14.55
2022-09-07T04:24:32.927Z,14.55
2022-09-07T04:25:07.711Z,14.55
2022-09-07T04:25:35.249Z,14.55
2022-09-07T04:26:27.895Z,14.55
2022-09-07T04:26:37.597Z,14.55
2022-09-07T04:27:09.369Z,14.55
2022-09-07T04:27:39.549Z,14.55
2022-09-07T04:28:10.520Z,14.55
2022-09-07T04:28:43.070Z,14.55
2022-09-07T04:29:12.189Z,14.55
2022-09-07T04:29:43.164Z,14.55
2022-09-07T04:30:45.278Z,14.55
2022-09-07T04:31:17.279Z,14.55
2022-09-07T04:31:48.061Z,14.55
2022-09-07T04:32:18.767Z,14.55
2022-09-07T04:32:50.312Z,14.55
2022-09-07T04:33:20.219Z,14.55
2022-09-07T04:33:51.204Z,14.55
2022-09-07T04:34:22.854Z,14.55
2022-09-07T04:34:53.187Z,14.55
2022-09-07T04:35:24.395Z,14.55
2022-09-07T04:35:55.056Z,14.55
2022-09-07T04:36:28.112Z,14.55
2022-09-07T04:36:57.769Z,14.55
2022-09-07T04:37:31.051Z,14.55
2022-09-07T04:37:59.339Z,14.55
2022-09-07T04:38:30.339Z,14.55
2022-09-07T04:39:01.959Z,14.55
2022-09-07T04:39:32.815Z,14.55
2022-09-07T04:40:03.853Z,14.65
2022-09-07T04:40:34.862Z,14.75
2022-09-07T04:41:05.143Z,14.85
2022-09-07T04:41:40.176Z,14.85
2022-09-07T04:42:07.666Z,14.85
2022-09-07T04:42:38.211Z,14.85
2022-09-07T04:43:09.261Z,14.85
2022-09-07T04:43:40.039Z,14.85
2022-09-07T04:44:14.895Z,14.85
2022-09-07T04:44:41.960Z,14.85
2022-09-07T04:45:13.378Z,14.85
2022-09-07T04:45:44.373Z,14.85
2022-09-07T04:46:15.470Z,14.85
2022-09-07T04:46:48.420Z,14.85
2022-09-07T04:47:17.901Z,14.85
2022-09-07T04:47:48.612Z,14.95
2022-09-07T04:48:19.823Z,14.95
2022-09-07T04:48:50.346Z,14.95
2022-09-07T04:49:21.324Z,14.95
2022-09-07T04:49:52.204Z,14.85
2022-09-07T04:50:27.386Z,14.85
2022-09-07T04:51:11.664Z,14.85
2022-09-07T04:51:25.818Z,14.85
2022-09-07T04:51:57.119Z,14.85
2022-09-07T04:52:31.470Z,14.85
2022-09-07T04:52:58.644Z,14.85
2022-09-07T04:53:46.711Z,14.85
2022-09-07T04:54:00.551Z,14.85
2022-09-07T04:54:32.346Z,14.85
2022-09-07T04:55:02.876Z,14.85
2022-09-07T04:55:35.875Z,14.85
2022-09-07T04:56:04.582Z,14.85
2022-09-07T04:56:37.278Z,14.85
2022-09-07T04:57:07.612Z,14.85
2022-09-07T04:57:38.077Z,14.85
2022-09-07T04:58:08.442Z,14.85
2022-09-07T04:58:39.248Z,14.85
2022-09-07T04:59:10.182Z,14.95
2022-09-07T04:59:41.361Z,14.95
2022-09-07T05:00:13.080Z,14.85
2022-09-07T05:00:47.038Z,14.95
2022-09-07T05:01:17.871Z,14.95
2022-09-07T05:01:45.654Z,14.95
2022-09-07T05:02:33.497Z,14.85
2022-09-07T05:02:52.778Z,14.85
2022-09-07T05:03:18.319Z,14.95
2022-09-07T05:03:49.196Z,14.95
2022-09-07T05:04:20.398Z,14.95
2022-09-07T05:04:51.607Z,14.95
2022-09-07T05:05:22.404Z,14.95
2022-09-07T05:05:53.253Z,14.95
2022-09-07T05:13:43.008Z,14.95
2022-09-07T05:14:11.718Z,15.05
2022-09-07T05:18:11.368Z,15.05
2022-09-07T05:20:49.766Z,15.15
2022-09-07T05:20:53.062Z,15.15
2022-09-07T05:21:23.394Z,15.15
2022-09-07T05:21:54.525Z,15.15
2022-09-07T05:22:25.527Z,15.15
2022-09-07T05:22:56.177Z,15.15
2022-09-07T05:23:28.741Z,15.25
2022-09-07T05:23:59.265Z,15.15
2022-09-07T05:24:29.568Z,15.15
2022-09-07T05:25:03.718Z,15.15
2022-09-07T05:25:33.691Z,15.15
2022-09-07T05:26:02.213Z,15.25
2022-09-07T05:26:33.610Z,15.25
2022-09-07T05:27:04.325Z,15.25
2022-09-07T05:27:35.568Z,15.25
2022-09-07T05:28:06.448Z,15.25
2022-09-07T05:28:38.730Z,15.25
2022-09-07T05:31:43.430Z,15.25
2022-09-07T05:32:14.524Z,15.25
2022-09-07T05:32:45.328Z,15.25
2022-09-07T05:33:16.371Z,15.25
2022-09-07T05:34:52.888Z,15.25
2022-09-07T05:35:21.754Z,15.25
2022-09-07T05:35:54.270Z,15.25
2022-09-07T05:36:53.531Z,15.25
2022-09-07T05:37:24.373Z,15.25
2022-09-07T05:37:59.897Z,15.25
2022-09-07T05:38:26.628Z,15.35
2022-09-07T05:38:57.601Z,15.35
2022-09-07T05:39:29.718Z,15.35
2022-09-07T05:39:59.946Z,15.35
2022-09-07T05:40:30.647Z,15.35
2022-09-07T05:41:01.417Z,15.35
2022-09-07T05:41:32.420Z,15.35
2022-09-07T05:42:03.549Z,15.35
2022-09-07T05:42:34.527Z,15.35
2022-09-07T05:43:05.450Z,15.35
2022-09-07T05:45:11.756Z,15.45
2022-09-07T05:45:41.941Z,15.45
2022-09-07T05:46:12.073Z,15.45
2022-09-07T05:46:42.337Z,15.45
2022-09-07T05:47:13.481Z,15.45
2022-09-07T05:47:44.867Z,15.45
2022-09-07T05:48:15.599Z,15.45
2022-09-07T05:48:46.671Z,15.45
2022-09-07T05:49:17.278Z,15.45
2022-09-07T05:49:52.930Z,15.55
2022-09-07T05:50:20.779Z,15.55
2022-09-07T05:50:50.753Z,15.55
2022-09-07T05:51:21.286Z,15.55
2022-09-07T05:51:52.292Z,15.55
2022-09-07T05:52:23.219Z,15.55
2022-09-07T05:52:54.351Z,15.55
2022-09-07T05:53:25.654Z,15.55
2022-09-07T05:53:56.238Z,15.65
2022-09-07T05:54:27.513Z,15.65
2022-09-07T05:55:13.404Z,15.65
2022-09-07T05:56:18.038Z,15.65
2022-09-07T05:56:34.400Z,15.65
2022-09-07T05:57:02.544Z,15.75
2022-09-07T05:57:33.604Z,15.75
2022-09-07T05:58:04.509Z,15.75
2022-09-07T05:58:35.324Z,15.75
2022-09-07T05:59:06.612Z,15.75
2022-09-07T05:59:55.027Z,15.75
2022-09-07T06:00:09.389Z,15.85
2022-09-07T06:00:40.571Z,15.85
2022-09-07T06:01:11.923Z,15.85
2022-09-07T06:01:41.402Z,15.85
2022-09-07T06:02:12.682Z,15.85
2022-09-07T06:02:43.680Z,15.95
2022-09-07T06:03:14.484Z,15.95
2022-09-07T06:03:45.966Z,15.95
2022-09-07T06:04:16.378Z,15.95
2022-09-07T06:04:47.636Z,16.05
2022-09-07T06:05:20.831Z,16.05
2022-09-07T06:05:50.098Z,16.05
2022-09-07T06:07:23.056Z,16.15
2022-09-07T06:08:03.283Z,16.15
2022-09-07T06:08:25.166Z,16.15
2022-09-07T06:08:56.441Z,16.15
2022-09-07T06:09:30.555Z,16.15
2022-09-07T06:11:00.001Z,16.15
2022-09-07T06:11:30.662Z,16.15
2022-09-07T06:12:01.890Z,16.15
2022-09-07T06:12:32.571Z,16.25
2022-09-07T06:13:04.061Z,16.25
2022-09-07T06:13:34.906Z,16.25
2022-09-07T06:14:06.492Z,16.25
2022-09-07T06:14:39.847Z,16.25
2022-09-07T06:15:09.567Z,16.35
2022-09-07T06:15:38.633Z,16.35
2022-09-07T06:16:10.965Z,16.35
2022-09-07T06:16:40.818Z,16.35
2022-09-07T06:17:11.953Z,16.45
2022-09-07T06:17:42.372Z,16.45
2022-09-07T06:18:13.556Z,16.45
2022-09-07T06:18:45.008Z,16.55
2022-09-07T06:19:15.995Z,16.55
2022-09-07T06:19:47.614Z,16.55
2022-09-07T06:20:18.247Z,16.65
2022-09-07T06:20:48.727Z,16.65
2022-09-07T06:21:22.977Z,16.65
2022-09-07T06:21:53.649Z,16.65
2022-09-07T06:22:21.630Z,16.65
2022-09-07T06:22:56.149Z,16.75
2022-09-07T06:23:23.609Z,16.75
2022-09-07T06:23:54.626Z,16.75
2022-09-07T06:24:27.908Z,16.85
2022-09-07T06:24:57.224Z,16.85
2022-09-07T06:25:28.196Z,16.95
2022-09-07T06:25:58.974Z,16.95
2022-09-07T06:26:29.457Z,16.95
2022-09-07T06:27:03.907Z,17.05
2022-09-07T06:27:31.670Z,17.05
2022-09-07T06:28:02.887Z,17.15
2022-09-07T06:28:33.413Z,17.15
2022-09-07T06:29:04.999Z,17.25
2022-09-07T06:29:35.551Z,17.35
2022-09-07T06:30:07.600Z,17.35
2022-09-07T06:30:38.482Z,17.35
2022-09-07T06:31:09.274Z,17.35
2022-09-07T06:33:12.591Z,17.45
2022-09-07T06:33:48.593Z,17.45
2022-09-07T06:34:14.793Z,17.55
2022-09-07T06:34:48.918Z,17.55
2022-09-07T06:35:18.554Z,17.55
2022-09-07T06:35:48.484Z,17.65
2022-09-07T06:36:19.063Z,17.65
2022-09-07T06:36:49.961Z,17.65
2022-09-07T06:37:20.636Z,17.65
2022-09-07T06:37:51.701Z,17.75
2022-09-07T06:38:22.405Z,17.58
2022-09-07T06:38:53.400Z,17.68
2022-09-07T06:39:24.498Z,17.88
2022-09-07T06:39:55.550Z,17.83
2022-09-07T06:40:26.657Z,17.76
2022-09-07T06:41:59.458Z,17.99
2022-09-07T06:42:30.705Z,18.09
2022-09-07T06:43:08.710Z,17.67
2022-09-07T06:43:32.441Z,17.84
2022-09-07T06:44:03.948Z,17.84
2022-09-07T06:44:35.788Z,17.94
2022-09-07T06:45:07.099Z,17.87
2022-09-07T06:45:39.806Z,17.69
2022-09-07T06:47:09.964Z,17.59
2022-09-07T06:47:59.373Z,17.39
2022-09-07T06:48:12.042Z,17.39
2022-09-07T06:48:45.279Z,17.48
2022-09-07T06:49:14.010Z,17.48
2022-09-07T06:49:44.787Z,17.48
2022-09-07T06:50:16.298Z,17.67
2022-09-07T06:50:46.689Z,17.77
2022-09-07T06:51:18.119Z,17.87
2022-09-07T06:51:49.871Z,17.97
2022-09-07T06:52:21.798Z,17.79
2022-09-07T06:53:52.896Z,17.61
2022-09-07T06:55:25.649Z,17.79
2022-09-07T06:56:28.595Z,17.97
2022-09-07T06:56:59.445Z,17.79
2022-09-07T06:57:29.789Z,17.79
2022-09-07T06:58:00.603Z,17.89
2022-09-07T06:58:31.887Z,17.89
2022-09-07T06:59:02.812Z,17.99
2022-09-07T06:59:38.366Z,18.09
2022-09-07T07:00:09.934Z,17.90
2022-09-07T07:00:44.542Z,17.90
2022-09-07T07:01:09.969Z,17.81
2022-09-07T07:01:38.277Z,17.81
2022-09-07T07:02:09.534Z,17.81
2022-09-07T07:02:41.592Z,17.81
2022-09-07T07:03:11.253Z,17.71
2022-09-07T07:03:41.854Z,17.71
2022-09-07T07:04:12.700Z,17.71
2022-09-07T07:04:44.530Z,17.81
2022-09-07T07:05:14.790Z,17.81
2022-09-07T07:05:45.661Z,17.90
2022-09-07T07:06:22.467Z,17.74
2022-09-07T07:06:49.022Z,17.74
2022-09-07T07:07:19.502Z,17.81
2022-09-07T07:07:50.434Z,17.81
2022-09-07T07:08:21.051Z,17.71
2022-09-07T07:08:51.819Z,17.71
2022-09-07T07:09:22.531Z,17.71
2022-09-07T07:09:53.566Z,17.81
2022-09-07T07:10:25.194Z,17.81
2022-09-07T07:10:55.627Z,17.81
2022-09-07T07:11:26.878Z,17.81
2022-09-07T07:11:58.057Z,17.61
2022-09-07T07:13:00.012Z,17.61
2022-09-07T07:13:30.985Z,17.51
2022-09-07T07:14:01.527Z,17.69
2022-09-07T07:14:34.596Z,17.49
2022-09-07T07:15:04.464Z,17.49